Time;durP1;ratioP1;P1;durP2;ratioP2;P2;SDS_P1;SDS_P2;PMS_P1;PMS_P2;Temp;Humidity;BMP_temperature;BMP_pressure;BME280_temperature;BME280_humidity;BME280_pressure;Samples;Min_cycle;Max_cycle;Signal;HPM_P1;HPM_P2
2020/12/08 05:01:46;;;;;;;13.35;10.90;;;5.50;99.90;;;;;;5418326;23;20630;-71
2020/12/08 05:04:12;;;;;;;12.60;10.77;;;5.50;99.90;;;;;;5014557;28;20279;-70
2020/12/08 05:06:38;;;;;;;15.80;11.65;;;5.50;99.90;;;;;;5014970;28;20207;-69
2020/12/08 05:09:06;;;;;;;14.30;10.88;;;5.50;99.90;;;;;;5014650;28;20207;-70
2020/12/08 05:11:33;;;;;;;14.05;11.30;;;5.50;99.90;;;;;;5015331;28;20227;-69
2020/12/08 05:14:00;;;;;;;14.75;11.57;;;5.50;99.90;;;;;;5006777;28;20216;-69
2020/12/08 05:16:27;;;;;;;15.20;10.27;;;5.50;99.90;;;;;;4996465;28;20215;-70
2020/12/08 05:19:05;;;;;;;13.23;10.93;;;5.50;99.90;;;;;;5002472;28;20211;-69
2020/12/08 05:21:31;;;;;;;14.40;11.07;;;5.50;99.90;;;;;;5011168;28;20296;-69
2020/12/08 05:23:57;;;;;;;13.88;11.68;;;5.50;99.90;;;;;;5000780;28;20208;-70
2020/12/08 05:26:23;;;;;;;15.25;11.02;;;5.50;99.90;;;;;;4997241;28;20270;-70
2020/12/08 05:28:59;;;;;;;16.27;11.60;;;5.50;99.90;;;;;;4999078;28;20266;-70
2020/12/08 05:31:26;;;;;;;13.30;10.70;;;5.50;99.90;;;;;;5012294;28;20227;-71
2020/12/08 05:33:59;;;;;;;14.40;11.50;;;5.40;99.90;;;;;;5002853;28;20295;-71
2020/12/08 05:36:27;;;;;;;14.48;11.15;;;5.50;99.90;;;;;;4995340;28;20208;-70
2020/12/08 05:38:58;;;;;;;12.27;10.40;;;5.50;99.90;;;;;;4996431;28;20215;-70
2020/12/08 05:41:29;;;;;;;15.98;12.18;;;5.50;99.90;;;;;;4999604;28;20273;-70
2020/12/08 05:44:03;;;;;;;14.88;11.55;;;5.50;99.90;;;;;;5009983;28;20207;-70
2020/12/08 05:46:39;;;;;;;12.75;10.25;;;5.50;99.90;;;;;;5005376;28;20203;-70
2020/12/08 05:49:06;;;;;;;14.30;10.73;;;5.50;99.90;;;;;;4996839;28;20538;-70
2020/12/08 05:51:38;;;;;;;19.75;17.73;;;5.50;99.90;;;;;;4994495;28;20630;-69
2020/12/08 05:54:05;;;;;;;14.07;10.60;;;5.50;99.90;;;;;;4999395;28;20199;-71
2020/12/08 05:56:34;;;;;;;14.90;10.60;;;5.50;99.90;;;;;;5014589;28;20258;-70
2020/12/08 05:59:00;;;;;;;17.05;11.20;;;5.50;99.90;;;;;;5000737;28;20306;-71
2020/12/08 06:01:27;;;;;;;11.98;10.10;;;5.50;99.90;;;;;;5007516;28;20269;-70
2020/12/08 06:03:56;;;;;;;11.55;9.77;;;5.50;99.90;;;;;;4999966;28;20285;-70
2020/12/08 06:06:23;;;;;;;13.27;9.65;;;5.50;99.90;;;;;;5009021;28;20350;-70
2020/12/08 06:08:49;;;;;;;11.95;10.40;;;5.50;99.90;;;;;;5012913;28;20268;-70
2020/12/08 06:11:16;;;;;;;16.05;9.75;;;5.50;99.90;;;;;;5001021;28;20231;-71
2020/12/08 06:13:46;;;;;;;13.57;9.75;;;5.50;99.90;;;;;;5000056;28;20226;-70
2020/12/08 06:16:15;;;;;;;12.27;9.63;;;5.50;99.90;;;;;;5008556;28;20719;-70
2020/12/08 06:18:41;;;;;;;11.80;10.60;;;5.50;99.90;;;;;;5000065;28;20231;-70
2020/12/08 06:21:19;;;;;;;11.20;10.00;;;5.50;99.90;;;;;;5002166;28;20227;-70
2020/12/08 06:23:45;;;;;;;14.27;9.30;;;5.50;99.90;;;;;;5008087;28;20291;-70
2020/12/08 06:26:12;;;;;;;11.13;10.02;;;5.50;99.90;;;;;;5005045;28;20204;-70
2020/12/08 06:28:38;;;;;;;13.10;9.95;;;5.50;99.90;;;;;;5005090;28;20223;-70
2020/12/08 06:31:05;;;;;;;12.00;10.32;;;5.50;99.90;;;;;;5001774;28;20223;-71
2020/12/08 06:33:32;;;;;;;11.40;9.90;;;5.50;99.90;;;;;;5006066;28;20286;-70
2020/12/08 06:35:59;;;;;;;12.40;10.55;;;5.50;99.90;;;;;;4995096;28;20293;-71
2020/12/08 06:38:25;;;;;;;15.13;10.55;;;5.60;99.90;;;;;;5000944;28;20211;-70
2020/12/08 06:40:53;;;;;;;11.90;10.20;;;5.50;99.90;;;;;;5007802;28;20286;-70
2020/12/08 06:43:20;;;;;;;14.45;10.60;;;5.50;99.90;;;;;;5003864;28;20203;-70
2020/12/08 06:45:46;;;;;;;12.93;10.25;;;5.50;99.90;;;;;;4996503;28;20238;-69
2020/12/08 06:48:16;;;;;;;12.00;9.68;;;5.50;99.90;;;;;;5007262;28;20249;-69
2020/12/08 06:50:42;;;;;;;14.75;10.68;;;5.50;99.90;;;;;;5004958;28;20364;-69
2020/12/08 06:53:08;;;;;;;12.98;10.75;;;5.50;99.90;;;;;;4992547;28;20263;-69
2020/12/08 06:55:43;;;;;;;12.25;9.90;;;5.50;99.90;;;;;;4993194;28;20215;-68
2020/12/08 06:58:11;;;;;;;12.73;9.82;;;5.50;99.90;;;;;;5006030;28;20274;-69
2020/12/08 07:00:37;;;;;;;11.32;10.02;;;5.60;99.90;;;;;;5006255;28;20615;-68
2020/12/08 07:03:03;;;;;;;14.32;10.40;;;5.60;99.90;;;;;;4992755;28;20204;-69
2020/12/08 07:05:31;;;;;;;13.90;10.45;;;5.60;99.90;;;;;;4992558;28;20622;-69
2020/12/08 07:07:59;;;;;;;13.02;10.15;;;5.50;99.90;;;;;;5010680;28;20596;-69
2020/12/08 07:10:25;;;;;;;14.45;10.18;;;5.60;99.90;;;;;;5011203;28;20203;-69
2020/12/08 07:12:53;;;;;;;12.73;10.48;;;5.60;99.90;;;;;;5011181;28;20269;-69
2020/12/08 07:15:22;;;;;;;20.00;12.15;;;5.60;99.90;;;;;;4993322;28;20632;-69
2020/12/08 07:17:55;;;;;;;15.88;11.18;;;5.60;99.90;;;;;;4993310;28;20270;-69
2020/12/08 07:20:22;;;;;;;12.13;10.93;;;5.60;99.90;;;;;;4992254;28;20231;-69
2020/12/08 07:22:48;;;;;;;16.48;12.13;;;5.50;99.90;;;;;;5002418;28;20306;-69
2020/12/08 07:25:16;;;;;;;16.23;12.13;;;5.50;99.90;;;;;;5003992;28;20204;-69
2020/12/08 07:27:45;;;;;;;13.32;11.75;;;5.50;99.90;;;;;;5013053;28;20215;-69
2020/12/08 07:30:12;;;;;;;18.00;12.90;;;5.40;99.90;;;;;;5007125;28;20647;-69
2020/12/08 07:32:40;;;;;;;14.23;12.38;;;5.40;99.90;;;;;;4998913;28;20668;-69
2020/12/08 07:35:06;;;;;;;17.52;13.07;;;5.40;99.90;;;;;;5001699;28;20298;-68
2020/12/08 07:37:37;;;;;;;17.55;12.40;;;5.30;99.90;;;;;;5013462;28;20223;-69
2020/12/08 07:40:08;;;;;;;15.90;12.50;;;5.30;99.90;;;;;;4991912;28;20283;-68
2020/12/08 07:42:36;;;;;;;15.40;13.23;;;5.30;99.90;;;;;;4993477;28;20525;-68
2020/12/08 07:45:03;;;;;;;16.98;12.50;;;5.30;99.90;;;;;;5006600;28;20208;-68
2020/12/08 07:47:29;;;;;;;20.15;14.52;;;5.30;99.90;;;;;;5007915;28;20203;-68
2020/12/08 07:49:56;;;;;;;21.30;14.32;;;5.30;99.90;;;;;;4995007;28;20235;-69
2020/12/08 07:52:22;;;;;;;24.98;14.48;;;5.30;99.90;;;;;;5005097;28;20226;-68
2020/12/08 07:54:48;;;;;;;15.43;12.38;;;5.30;99.90;;;;;;4996316;28;20237;-68
2020/12/08 07:57:14;;;;;;;18.10;13.90;;;5.30;99.90;;;;;;5004884;28;20219;-68
2020/12/08 07:59:40;;;;;;;18.58;12.65;;;5.40;99.90;;;;;;5001269;28;20203;-69
2020/12/08 08:02:06;;;;;;;15.65;12.63;;;5.40;99.90;;;;;;4997600;28;20291;-69
2020/12/08 08:04:32;;;;;;;15.50;13.35;;;5.40;99.90;;;;;;4999504;28;20740;-68
2020/12/08 08:06:59;;;;;;;15.20;12.30;;;5.40;99.90;;;;;;5006386;28;20211;-69
2020/12/08 08:09:25;;;;;;;15.60;12.82;;;5.40;99.90;;;;;;4995686;28;20204;-68
2020/12/08 08:11:51;;;;;;;15.02;12.70;;;5.40;99.90;;;;;;5011262;28;20644;-69
2020/12/08 08:14:17;;;;;;;15.95;13.43;;;5.40;99.90;;;;;;4995342;28;20215;-68
2020/12/08 08:16:43;;;;;;;17.92;13.98;;;5.40;99.90;;;;;;5007251;28;20652;-68
2020/12/08 08:19:10;;;;;;;13.02;11.60;;;5.40;99.90;;;;;;5005254;28;20274;-69
2020/12/08 08:21:36;;;;;;;15.35;12.95;;;5.40;99.90;;;;;;4997783;28;20224;-68
2020/12/08 08:24:03;;;;;;;13.60;11.68;;;5.40;99.90;;;;;;4991583;28;20212;-68
2020/12/08 08:26:29;;;;;;;14.15;11.45;;;5.40;99.90;;;;;;5004350;28;20288;-68
2020/12/08 08:28:56;;;;;;;16.67;13.82;;;5.40;99.90;;;;;;5009085;28;20203;-68
2020/12/08 08:31:22;;;;;;;13.40;12.02;;;5.40;99.90;;;;;;4992221;28;20232;-69
2020/12/08 08:33:48;;;;;;;12.80;11.00;;;5.40;99.90;;;;;;4989780;28;20212;-69
2020/12/08 08:36:14;;;;;;;12.80;11.50;;;5.40;99.90;;;;;;4992650;28;20571;-68
2020/12/08 08:38:40;;;;;;;16.25;11.30;;;5.40;99.90;;;;;;4995488;28;20227;-69
2020/12/08 08:41:07;;;;;;;13.75;11.00;;;5.40;99.90;;;;;;5001066;28;20235;-68
2020/12/08 08:43:33;;;;;;;12.13;10.82;;;5.40;99.90;;;;;;4991365;28;20767;-68
2020/12/08 08:45:59;;;;;;;15.43;11.07;;;5.40;99.90;;;;;;4993154;28;20215;-68
2020/12/08 08:48:25;;;;;;;15.63;12.07;;;5.40;99.90;;;;;;4998880;28;20647;-69
2020/12/08 08:50:52;;;;;;;16.33;11.32;;;5.30;99.90;;;;;;4991238;28;20224;-68
2020/12/08 08:53:18;;;;;;;15.60;13.00;;;5.30;99.90;;;;;;4989120;28;20212;-69
2020/12/08 08:55:44;;;;;;;13.73;11.35;;;5.30;99.90;;;;;;4989784;28;20270;-68
2020/12/08 08:58:11;;;;;;;14.85;12.30;;;5.30;99.90;;;;;;4990723;28;20230;-69
2020/12/08 09:00:37;;;;;;;19.73;12.30;;;5.30;99.90;;;;;;4989741;28;20286;-68
2020/12/08 09:03:05;;;;;;;15.35;11.75;;;5.30;99.90;;;;;;4998278;28;20266;-69
2020/12/08 09:05:32;;;;;;;16.33;12.52;;;5.30;99.90;;;;;;4995596;28;20617;-69
2020/12/08 09:07:58;;;;;;;14.32;11.20;;;5.30;99.90;;;;;;4993777;28;20683;-69
2020/12/08 09:10:24;;;;;;;17.02;12.65;;;5.30;99.90;;;;;;4999359;28;20664;-68
2020/12/08 09:12:50;;;;;;;16.40;11.32;;;5.30;99.90;;;;;;5001203;28;20203;-68
2020/12/08 09:15:17;;;;;;;17.50;13.23;;;5.30;99.90;;;;;;5001173;28;20597;-68
2020/12/08 09:17:43;;;;;;;17.05;11.50;;;5.30;99.90;;;;;;4999289;28;20226;-68
2020/12/08 09:20:10;;;;;;;18.80;13.68;;;5.40;99.90;;;;;;5001605;28;20203;-68
2020/12/08 09:22:36;;;;;;;15.73;13.60;;;5.40;99.90;;;;;;4999928;28;20216;-68
2020/12/08 09:25:02;;;;;;;15.95;12.93;;;5.50;99.90;;;;;;4993669;28;20300;-68
2020/12/08 09:27:28;;;;;;;18.00;13.75;;;5.50;99.90;;;;;;4994583;28;20200;-68
2020/12/08 09:29:55;;;;;;;18.75;12.82;;;5.50;99.90;;;;;;4995681;28;20204;-68
2020/12/08 09:32:21;;;;;;;16.88;12.32;;;5.50;99.90;;;;;;4994421;28;20775;-68
2020/12/08 09:34:48;;;;;;;17.48;13.48;;;5.60;99.90;;;;;;4997385;28;20261;-69
2020/12/08 09:37:14;;;;;;;20.20;13.40;;;5.60;99.90;;;;;;5014151;28;20663;-68
2020/12/08 09:39:40;;;;;;;15.32;13.40;;;5.60;99.90;;;;;;5008787;28;20203;-68
2020/12/08 09:42:06;;;;;;;17.70;13.07;;;5.60;99.90;;;;;;5006925;28;20228;-69
2020/12/08 09:44:32;;;;;;;17.75;14.10;;;5.60;99.90;;;;;;5000222;28;20204;-68
2020/12/08 09:46:58;;;;;;;19.67;14.80;;;5.60;99.90;;;;;;5004956;28;20211;-68
2020/12/08 09:49:26;;;;;;;16.80;14.05;;;5.70;99.90;;;;;;5007222;28;20298;-69
2020/12/08 09:51:52;;;;;;;19.33;14.65;;;5.70;99.90;;;;;;5003199;28;20285;-68
2020/12/08 09:54:18;;;;;;;14.48;12.40;;;5.80;99.90;;;;;;5011997;28;20211;-68
2020/12/08 09:56:46;;;;;;;15.40;13.65;;;5.80;99.90;;;;;;5010655;28;20212;-68
2020/12/08 09:59:12;;;;;;;16.75;13.43;;;5.90;99.90;;;;;;4997585;28;20370;-68
2020/12/08 10:01:39;;;;;;;19.08;14.00;;;5.90;99.90;;;;;;5011088;28;20293;-68
2020/12/08 10:04:05;;;;;;;19.20;14.07;;;5.90;99.90;;;;;;4994458;28;20212;-68
2020/12/08 10:06:32;;;;;;;15.63;13.15;;;6.00;99.90;;;;;;5007756;28;20307;-69
2020/12/08 10:08:58;;;;;;;16.27;13.20;;;6.00;99.90;;;;;;4997229;28;20211;-68
2020/12/08 10:11:25;;;;;;;16.55;13.13;;;6.00;99.90;;;;;;5007979;28;20262;-68
2020/12/08 10:13:52;;;;;;;19.23;13.80;;;6.00;99.90;;;;;;4995154;28;20342;-68
2020/12/08 10:16:19;;;;;;;16.35;14.48;;;6.00;99.90;;;;;;5011169;28;20667;-68
2020/12/08 10:18:46;;;;;;;18.05;13.30;;;6.10;99.90;;;;;;4993387;28;20751;-68
2020/12/08 10:21:12;;;;;;;15.02;12.70;;;6.10;99.90;;;;;;5005863;28;20317;-68
2020/12/08 10:23:39;;;;;;;15.88;12.45;;;6.10;99.90;;;;;;5010177;28;20257;-68
2020/12/08 10:26:05;;;;;;;16.17;13.30;;;6.10;99.90;;;;;;5002946;28;20649;-68
2020/12/08 10:28:31;;;;;;;19.67;14.85;;;6.10;99.90;;;;;;4999143;28;20200;-68
2020/12/08 10:30:58;;;;;;;17.77;13.45;;;6.20;99.90;;;;;;4996386;28;20293;-69
2020/12/08 10:33:24;;;;;;;16.70;14.90;;;6.20;99.90;;;;;;5007235;28;20207;-68
2020/12/08 10:35:50;;;;;;;19.52;13.90;;;6.20;99.90;;;;;;5005395;28;20258;-68
2020/12/08 10:38:16;;;;;;;16.83;14.52;;;6.20;99.90;;;;;;4993954;28;20271;-68
2020/12/08 10:40:43;;;;;;;17.08;13.43;;;6.20;99.90;;;;;;4999789;28;20224;-68
2020/12/08 10:43:09;;;;;;;16.88;13.20;;;6.20;99.90;;;;;;4992925;28;20208;-68
2020/12/08 10:45:35;;;;;;;17.10;13.88;;;6.20;99.90;;;;;;5012821;28;20285;-68
2020/12/08 10:48:02;;;;;;;16.83;13.60;;;6.20;99.90;;;;;;5011656;28;20230;-68
2020/12/08 10:50:28;;;;;;;14.23;12.00;;;6.30;99.90;;;;;;5001560;28;20682;-68
2020/12/08 10:52:54;;;;;;;18.98;14.30;;;6.30;99.90;;;;;;5001970;28;20681;-68
2020/12/08 10:55:21;;;;;;;15.50;13.05;;;6.30;99.90;;;;;;5005448;28;20199;-68
2020/12/08 10:57:48;;;;;;;17.30;13.60;;;6.30;99.90;;;;;;5004837;28;20664;-68
2020/12/08 11:00:14;;;;;;;16.27;12.82;;;6.30;99.90;;;;;;5001542;28;20538;-67
2020/12/08 11:02:41;;;;;;;17.10;13.90;;;6.30;99.90;;;;;;5008184;28;20222;-68
2020/12/08 11:05:07;;;;;;;15.90;12.38;;;6.30;99.90;;;;;;5004506;28;20282;-68
2020/12/08 11:07:33;;;;;;;17.80;14.80;;;6.30;99.90;;;;;;4997650;28;20199;-68
2020/12/08 11:09:59;;;;;;;17.48;13.00;;;6.30;99.90;;;;;;5006033;28;20604;-68
2020/12/08 11:12:26;;;;;;;17.08;13.82;;;6.30;99.90;;;;;;4995427;28;20691;-68
2020/12/08 11:14:53;;;;;;;22.02;15.88;;;6.30;99.90;;;;;;5006384;28;20219;-68
2020/12/08 11:17:19;;;;;;;17.30;14.50;;;6.30;99.90;;;;;;5005054;28;20219;-68
2020/12/08 11:19:45;;;;;;;21.75;16.13;;;6.40;99.90;;;;;;5009492;28;20617;-68
2020/12/08 11:22:11;;;;;;;20.42;15.80;;;6.30;99.90;;;;;;4998683;28;20329;-68
2020/12/08 11:24:38;;;;;;;21.13;15.68;;;6.30;99.90;;;;;;5001284;28;20251;-69
2020/12/08 11:27:04;;;;;;;21.75;14.27;;;6.40;99.90;;;;;;4998839;28;20199;-68
2020/12/08 11:29:30;;;;;;;21.92;15.55;;;6.40;99.90;;;;;;4996333;28;20590;-69
2020/12/08 11:31:57;;;;;;;25.38;17.20;;;6.40;99.90;;;;;;4991724;28;20228;-68
2020/12/08 11:34:23;;;;;;;22.85;16.55;;;6.30;99.90;;;;;;4991607;28;20204;-69
2020/12/08 11:36:54;;;;;;;24.27;17.30;;;6.40;99.90;;;;;;4992231;28;20593;-68
2020/12/08 11:39:21;;;;;;;25.08;16.58;;;6.40;99.90;;;;;;4991922;28;20228;-69
2020/12/08 11:41:47;;;;;;;28.73;18.15;;;6.40;99.90;;;;;;4990635;28;20278;-69
2020/12/08 11:44:13;;;;;;;29.30;19.25;;;6.40;99.90;;;;;;4992252;28;20196;-69
2020/12/08 11:46:39;;;;;;;26.38;18.48;;;6.30;99.90;;;;;;4992641;28;20216;-68
2020/12/08 11:49:06;;;;;;;26.92;17.02;;;6.30;99.90;;;;;;4993743;28;20600;-68
2020/12/08 11:51:33;;;;;;;28.08;17.65;;;6.30;99.90;;;;;;5007516;28;20284;-68
2020/12/08 11:53:59;;;;;;;28.15;17.70;;;6.20;99.90;;;;;;5005415;28;20234;-67
2020/12/08 11:56:26;;;;;;;33.45;23.30;;;6.20;99.90;;;;;;4993148;28;20245;-68
2020/12/08 11:58:52;;;;;;;31.55;20.20;;;6.30;99.90;;;;;;5006599;28;20228;-68
2020/12/08 12:01:18;;;;;;;27.73;21.70;;;6.30;99.90;;;;;;4998646;28;20659;-68
2020/12/08 12:03:44;;;;;;;25.60;18.73;;;6.30;99.90;;;;;;4992469;28;20542;-68
2020/12/08 12:06:13;;;;;;;33.25;19.80;;;6.30;99.90;;;;;;5003371;28;20645;-68
2020/12/08 12:08:39;;;;;;;36.05;21.20;;;6.30;99.90;;;;;;5002147;28;20195;-68
2020/12/08 12:11:06;;;;;;;30.30;18.67;;;6.30;99.90;;;;;;5000946;28;20273;-69
2020/12/08 12:13:32;;;;;;;26.58;18.67;;;6.30;99.90;;;;;;5001814;28;20633;-68
2020/12/08 12:15:58;;;;;;;32.20;19.00;;;6.30;99.90;;;;;;5001831;28;20268;-69
2020/12/08 12:18:24;;;;;;;30.42;19.42;;;6.30;99.90;;;;;;4997166;28;20468;-68
2020/12/08 12:20:50;;;;;;;28.63;18.08;;;6.30;99.90;;;;;;4991998;28;20236;-68
2020/12/08 12:23:17;;;;;;;29.13;18.13;;;6.30;99.90;;;;;;4999486;28;20265;-68
2020/12/08 12:25:44;;;;;;;31.98;19.65;;;6.30;99.90;;;;;;4994142;28;20596;-68
2020/12/08 12:28:10;;;;;;;34.13;19.50;;;6.30;99.90;;;;;;4999726;28;20219;-67
2020/12/08 12:30:36;;;;;;;35.50;20.42;;;6.30;99.90;;;;;;5003409;28;20278;-67
2020/12/08 12:33:02;;;;;;;33.85;19.38;;;6.20;99.90;;;;;;4997907;28;20606;-67
2020/12/08 12:35:28;;;;;;;33.40;20.45;;;6.30;99.90;;;;;;5007905;28;20218;-68
2020/12/08 12:37:54;;;;;;;39.28;21.83;;;6.30;99.90;;;;;;4998435;28;20295;-68
2020/12/08 12:40:21;;;;;;;33.40;20.30;;;6.30;99.90;;;;;;5006201;28;20211;-68
2020/12/08 12:42:48;;;;;;;36.55;20.05;;;6.20;99.90;;;;;;5005799;28;20576;-68
2020/12/08 12:45:14;;;;;;;33.42;20.20;;;6.20;99.90;;;;;;5002283;28;20238;-68
2020/12/08 12:47:40;;;;;;;37.35;21.40;;;6.20;99.90;;;;;;5009402;28;20214;-68
2020/12/08 12:50:07;;;;;;;33.17;19.38;;;6.20;99.90;;;;;;4997426;28;20258;-68
2020/12/08 12:52:33;;;;;;;33.47;20.15;;;6.20;99.90;;;;;;4999658;28;20203;-68
2020/12/08 12:54:59;;;;;;;31.15;18.20;;;6.20;99.90;;;;;;5013360;28;20219;-68
2020/12/08 12:57:26;;;;;;;30.13;19.17;;;6.10;99.90;;;;;;5008129;28;20251;-67
2020/12/08 12:59:52;;;;;;;33.50;19.00;;;6.10;99.90;;;;;;5013940;28;20206;-68
2020/12/08 13:02:18;;;;;;;35.30;20.38;;;6.10;99.90;;;;;;5010704;28;20367;-68
2020/12/08 13:04:44;;;;;;;40.55;21.25;;;6.10;99.90;;;;;;5010732;28;20610;-69
2020/12/08 13:07:15;;;;;;;31.10;18.92;;;6.10;99.90;;;;;;5006704;28;20204;-69
2020/12/08 13:09:41;;;;;;;31.77;19.10;;;6.10;99.90;;;;;;4998478;28;20215;-68
2020/12/08 13:12:07;;;;;;;39.20;20.45;;;6.10;99.90;;;;;;4994186;28;20235;-68
2020/12/08 13:14:34;;;;;;;32.10;20.70;;;6.10;99.90;;;;;;4993294;28;20212;-68
2020/12/08 13:17:00;;;;;;;36.13;21.23;;;6.10;99.90;;;;;;4995008;28;20269;-68
2020/12/08 13:19:26;;;;;;;40.92;22.83;;;6.10;99.90;;;;;;4994664;28;20282;-69
2020/12/08 13:21:52;;;;;;;35.50;19.67;;;6.00;99.90;;;;;;4994570;28;20297;-69
2020/12/08 13:24:18;;;;;;;37.75;21.40;;;6.00;99.90;;;;;;4993607;28;20295;-70
2020/12/08 13:26:45;;;;;;;35.58;21.05;;;6.00;99.90;;;;;;5009359;28;20211;-69
2020/12/08 13:29:11;;;;;;;29.52;16.73;;;6.00;99.90;;;;;;4994278;28;20660;-69
2020/12/08 13:31:38;;;;;;;36.50;21.88;;;6.00;99.90;;;;;;4994061;28;20294;-69
2020/12/08 13:34:04;;;;;;;51.97;24.35;;;5.90;99.90;;;;;;4993822;28;20258;-69
2020/12/08 13:36:31;;;;;;;37.50;22.73;;;6.00;99.90;;;;;;4997847;28;20204;-68
2020/12/08 13:38:58;;;;;;;38.28;22.00;;;5.90;99.90;;;;;;4992804;28;20228;-67
2020/12/08 13:41:24;;;;;;;40.97;21.60;;;5.90;99.90;;;;;;4996973;28;20277;-68
2020/12/08 13:43:50;;;;;;;42.80;23.55;;;5.90;99.90;;;;;;5011213;28;20211;-69
2020/12/08 13:46:21;;;;;;;46.30;24.30;;;5.90;99.90;;;;;;5007245;28;20258;-69
2020/12/08 13:48:48;;;;;;;44.42;24.42;;;5.90;99.90;;;;;;4996299;28;20251;-70
2020/12/08 13:51:14;;;;;;;36.58;22.00;;;5.90;99.90;;;;;;4991221;28;20700;-69
2020/12/08 13:53:40;;;;;;;51.10;27.63;;;5.80;99.90;;;;;;4992573;28;20204;-68
2020/12/08 13:56:06;;;;;;;61.92;28.08;;;5.90;99.90;;;;;;4993900;28;20266;-68
2020/12/08 13:58:33;;;;;;;41.70;23.10;;;5.90;99.90;;;;;;4994197;28;20227;-68
2020/12/08 14:00:59;;;;;;;41.30;23.55;;;5.90;99.90;;;;;;4993034;28;20782;-68
2020/12/08 14:03:25;;;;;;;46.25;24.85;;;5.90;99.90;;;;;;4991828;28;20545;-68
2020/12/08 14:05:54;;;;;;;40.53;21.65;;;5.90;99.90;;;;;;5002947;28;20207;-68
2020/12/08 14:08:21;;;;;;;39.75;20.23;;;5.90;99.90;;;;;;5002711;28;20212;-68
2020/12/08 14:10:48;;;;;;;39.38;22.33;;;5.80;99.90;;;;;;5002534;28;20223;-68
2020/12/08 14:13:15;;;;;;;47.10;22.70;;;5.80;99.90;;;;;;5008510;28;20237;-68
2020/12/08 14:15:41;;;;;;;44.63;23.77;;;5.80;99.90;;;;;;4996417;28;20626;-68
2020/12/08 14:18:07;;;;;;;42.33;24.48;;;5.80;99.90;;;;;;5000504;28;20224;-68
2020/12/08 14:20:34;;;;;;;39.47;22.58;;;5.80;99.90;;;;;;4997000;28;20622;-69
2020/12/08 14:23:01;;;;;;;51.35;23.45;;;5.80;99.90;;;;;;4997455;28;20667;-68
2020/12/08 14:25:29;;;;;;;35.53;21.65;;;5.80;99.90;;;;;;4993155;28;20270;-68
2020/12/08 14:27:55;;;;;;;42.70;22.98;;;5.80;99.90;;;;;;4993151;28;20672;-68
2020/12/08 14:30:21;;;;;;;43.58;24.35;;;5.80;99.90;;;;;;4992952;28;20278;-69
2020/12/08 14:32:47;;;;;;;48.92;24.08;;;5.80;99.90;;;;;;4992458;28;20872;-68
2020/12/08 14:35:13;;;;;;;43.63;24.85;;;5.80;99.90;;;;;;4991895;28;20323;-68
2020/12/08 14:37:40;;;;;;;43.17;22.83;;;5.90;99.90;;;;;;4992228;28;20208;-69
2020/12/08 14:40:08;;;;;;;50.65;24.15;;;5.80;99.90;;;;;;4992492;28;20203;-68
2020/12/08 14:42:35;;;;;;;41.25;23.90;;;5.80;99.90;;;;;;4992388;28;20222;-69
2020/12/08 14:45:02;;;;;;;43.78;23.23;;;5.80;99.90;;;;;;4992861;28;20561;-68
2020/12/08 14:47:28;;;;;;;43.72;24.77;;;5.80;99.90;;;;;;4994614;28;20215;-69
2020/12/08 14:49:56;;;;;;;43.47;22.55;;;5.80;99.90;;;;;;4992211;28;20294;-69
2020/12/08 14:52:26;;;;;;;43.17;24.55;;;5.90;99.90;;;;;;4992275;28;20239;-69
2020/12/08 14:54:52;;;;;;;47.63;25.10;;;5.90;99.90;;;;;;4992184;28;20212;-69
2020/12/08 14:57:19;;;;;;;43.10;24.63;;;5.80;99.90;;;;;;4993389;28;20234;-69
2020/12/08 14:59:45;;;;;;;46.53;26.50;;;5.80;99.90;;;;;;4992611;28;20231;-70
2020/12/08 15:02:12;;;;;;;38.92;22.95;;;5.80;99.90;;;;;;4991528;28;20236;-70
2020/12/08 15:04:38;;;;;;;46.40;25.77;;;5.80;99.90;;;;;;4991881;28;20220;-70
2020/12/08 15:07:04;;;;;;;44.70;26.27;;;5.80;99.90;;;;;;4992631;28;20208;-70
2020/12/08 15:09:30;;;;;;;45.13;25.05;;;5.90;99.90;;;;;;4992669;28;20204;-69
2020/12/08 15:11:57;;;;;;;42.47;24.95;;;5.90;99.90;;;;;;4995576;28;20821;-69
2020/12/08 15:14:25;;;;;;;47.38;25.90;;;5.90;99.90;;;;;;5007186;28;20207;-69
2020/12/08 15:16:51;;;;;;;43.50;24.48;;;5.90;99.90;;;;;;4992916;28;20200;-69
2020/12/08 15:19:17;;;;;;;45.50;24.77;;;5.90;99.90;;;;;;4992197;28;20297;-69
2020/12/08 15:21:43;;;;;;;46.85;27.42;;;5.80;99.90;;;;;;5003946;28;20223;-69
2020/12/08 15:24:11;;;;;;;49.70;25.05;;;5.90;99.90;;;;;;5007333;28;20215;-69
2020/12/08 15:26:37;;;;;;;49.35;26.23;;;5.90;99.90;;;;;;5012561;28;20207;-69
2020/12/08 15:29:04;;;;;;;51.63;26.30;;;5.90;99.90;;;;;;5009876;28;20253;-69
2020/12/08 15:31:31;;;;;;;45.22;25.80;;;5.80;99.90;;;;;;4992039;28;20629;-69
2020/12/08 15:33:58;;;;;;;45.03;25.75;;;5.80;99.90;;;;;;5003988;28;20273;-69
2020/12/08 15:36:25;;;;;;;50.70;26.90;;;5.80;99.90;;;;;;5011655;28;20294;-69
2020/12/08 15:38:52;;;;;;;50.90;28.30;;;5.80;99.90;;;;;;5004350;28;20277;-69
2020/12/08 15:41:19;;;;;;;45.05;25.75;;;5.80;99.90;;;;;;4991945;28;20637;-69
2020/12/08 15:43:45;;;;;;;45.75;28.38;;;5.80;99.90;;;;;;4994549;28;20219;-69
2020/12/08 15:46:12;;;;;;;49.80;27.85;;;5.90;99.90;;;;;;4994459;28;20208;-69
2020/12/08 15:48:39;;;;;;;42.50;25.52;;;5.90;99.90;;;;;;5011257;28;20215;-69
2020/12/08 15:51:05;;;;;;;51.45;26.70;;;5.90;99.90;;;;;;5008735;28;20590;-68
2020/12/08 15:53:31;;;;;;;52.78;27.35;;;5.90;99.90;;;;;;5010045;28;20214;-68
2020/12/08 15:55:58;;;;;;;49.10;25.75;;;5.90;99.90;;;;;;5011142;28;20234;-69
2020/12/08 15:58:24;;;;;;;44.75;26.15;;;5.90;99.90;;;;;;5011667;28;20309;-69
2020/12/08 16:00:50;;;;;;;52.15;28.20;;;5.90;99.90;;;;;;4993495;28;20227;-69
2020/12/08 16:03:16;;;;;;;48.63;27.35;;;5.90;99.90;;;;;;4994583;28;20658;-69
2020/12/08 16:05:43;;;;;;;42.83;25.52;;;5.90;99.90;;;;;;4993894;28;20222;-69
2020/12/08 16:08:09;;;;;;;45.15;26.45;;;5.90;99.90;;;;;;4995808;28;20341;-69
2020/12/08 16:10:36;;;;;;;50.00;27.23;;;5.90;99.90;;;;;;4992092;28;20289;-70
2020/12/08 16:13:02;;;;;;;46.22;27.35;;;5.90;99.90;;;;;;4995395;28;20204;-70
2020/12/08 16:15:29;;;;;;;43.72;25.90;;;5.80;99.90;;;;;;5007303;28;20296;-71
2020/12/08 16:17:55;;;;;;;48.05;26.95;;;5.80;99.90;;;;;;5007261;28;20208;-70
2020/12/08 16:20:21;;;;;;;48.55;27.20;;;5.80;99.90;;;;;;5009932;28;20597;-70
2020/12/08 16:22:48;;;;;;;50.65;26.85;;;5.80;99.90;;;;;;4996471;28;20203;-70
2020/12/08 16:25:14;;;;;;;43.60;26.60;;;5.80;99.90;;;;;;5008016;28;20253;-70
2020/12/08 16:27:43;;;;;;;46.92;26.73;;;5.80;99.90;;;;;;5012295;28;20609;-71
2020/12/08 16:30:10;;;;;;;45.42;27.17;;;5.80;99.90;;;;;;5012592;28;20202;-69
2020/12/08 16:32:37;;;;;;;50.35;27.00;;;5.80;99.90;;;;;;5004311;28;20219;-70
2020/12/08 16:35:04;;;;;;;47.30;27.23;;;5.80;99.90;;;;;;4996334;28;20298;-70
2020/12/08 16:37:30;;;;;;;46.85;25.90;;;5.80;99.90;;;;;;4995571;28;20726;-69
2020/12/08 16:39:57;;;;;;;49.20;26.00;;;5.80;99.90;;;;;;4994325;28;20278;-70
2020/12/08 16:42:25;;;;;;;42.08;25.55;;;5.80;99.90;;;;;;5002593;28;20227;-71
2020/12/08 16:44:51;;;;;;;46.42;25.70;;;5.90;99.90;;;;;;5001649;28;20299;-70
2020/12/08 16:47:17;;;;;;;42.85;27.10;;;5.90;99.90;;;;;;4994785;28;20204;-70
2020/12/08 16:49:43;;;;;;;48.40;28.08;;;5.90;99.90;;;;;;4995722;28;20212;-69
2020/12/08 16:52:10;;;;;;;48.42;27.88;;;5.90;99.90;;;;;;5000388;28;20264;-70
2020/12/08 16:54:37;;;;;;;43.05;25.55;;;5.90;99.90;;;;;;4994801;28;20886;-70
2020/12/08 16:57:05;;;;;;;43.42;27.35;;;5.90;99.90;;;;;;5011453;28;20211;-70
2020/12/08 16:59:31;;;;;;;49.47;28.65;;;5.90;99.90;;;;;;5000122;28;20235;-67
2020/12/08 17:01:58;;;;;;;48.67;28.52;;;5.90;99.90;;;;;;4999435;28;20239;-68
2020/12/08 17:04:24;;;;;;;49.13;29.15;;;5.90;99.90;;;;;;4997828;28;20207;-67
2020/12/08 17:06:50;;;;;;;46.53;28.77;;;5.90;99.90;;;;;;4998416;28;20216;-67
2020/12/08 17:09:19;;;;;;;48.40;29.25;;;5.90;99.90;;;;;;5000202;28;20621;-68
2020/12/08 17:11:45;;;;;;;56.60;31.10;;;5.90;99.90;;;;;;4996452;28;20321;-69
2020/12/08 17:14:12;;;;;;;50.20;28.45;;;5.90;99.90;;;;;;5009656;28;20600;-68
2020/12/08 17:16:39;;;;;;;56.58;29.60;;;6.00;99.90;;;;;;5008584;28;20203;-69
2020/12/08 17:19:05;;;;;;;46.83;27.45;;;5.90;99.90;;;;;;5013609;28;20227;-68
2020/12/08 17:21:32;;;;;;;48.65;28.02;;;5.90;99.90;;;;;;5008707;28;20715;-68
2020/12/08 17:23:58;;;;;;;51.00;30.17;;;5.90;99.90;;;;;;5005668;28;20204;-69
2020/12/08 17:26:24;;;;;;;49.97;30.17;;;5.90;99.90;;;;;;5013846;28;20208;-69
2020/12/08 17:28:50;;;;;;;43.47;28.73;;;6.00;99.90;;;;;;5009403;28;20199;-69
2020/12/08 17:31:17;;;;;;;48.50;29.88;;;5.90;99.90;;;;;;5014444;28;20699;-69
2020/12/08 17:33:43;;;;;;;51.38;29.63;;;6.00;99.90;;;;;;4994818;28;20477;-68
2020/12/08 17:36:09;;;;;;;52.35;28.90;;;5.90;99.90;;;;;;4994227;28;20266;-68